sensor_id;sensor_type;location;lat;lon;timestamp;pressure;altitude;pressure_sealevel;temperature;humidity
59939;BME280;45801;51.810;19.444;2023-03-20T00:01:22;99047.71;;;8.47;56.25
59939;BME280;45801;51.810;19.444;2023-03-20T00:03:50;99045.21;;;8.49;56.67
59939;BME280;45801;51.810;19.444;2023-03-20T00:06:19;99044.69;;;8.49;56.57
59939;BME280;45801;51.810;19.444;2023-03-20T00:08:48;99044.36;;;8.46;56.57
59939;BME280;45801;51.810;19.444;2023-03-20T00:11:32;99041.48;;;8.42;56.82
59939;BME280;45801;51.810;19.444;2023-03-20T00:14:03;99037.77;;;8.40;57.11
59939;BME280;45801;51.810;19.444;2023-03-20T00:16:33;99036.22;;;8.41;57.16
59939;BME280;45801;51.810;19.444;2023-03-20T00:19:01;99034.40;;;8.39;56.89
59939;BME280;45801;51.810;19.444;2023-03-20T00:21:29;99036.44;;;8.38;56.89
59939;BME280;45801;51.810;19.444;2023-03-20T00:23:56;99039.39;;;8.38;56.97
59939;BME280;45801;51.810;19.444;2023-03-20T00:26:29;99037.21;;;8.36;57.12
59939;BME280;45801;51.810;19.444;2023-03-20T00:29:00;99035.62;;;8.36;57.25
59939;BME280;45801;51.810;19.444;2023-03-20T00:31:29;99036.36;;;8.36;57.23
59939;BME280;45801;51.810;19.444;2023-03-20T00:33:58;99034.98;;;8.37;57.13
59939;BME280;45801;51.810;19.444;2023-03-20T00:36:26;99033.70;;;8.36;57.48
59939;BME280;45801;51.810;19.444;2023-03-20T00:38:54;99031.40;;;8.35;57.45
59939;BME280;45801;51.810;19.444;2023-03-20T00:41:34;99030.13;;;8.34;57.67
59939;BME280;45801;51.810;19.444;2023-03-20T00:44:20;99028.69;;;8.33;57.38
59939;BME280;45801;51.810;19.444;2023-03-20T00:47:10;99022.90;;;8.32;57.37
59939;BME280;45801;51.810;19.444;2023-03-20T00:49:38;99023.98;;;8.33;57.49
59939;BME280;45801;51.810;19.444;2023-03-20T00:52:05;99021.62;;;8.35;57.66
59939;BME280;45801;51.810;19.444;2023-03-20T00:54:32;99023.45;;;8.37;57.51
59939;BME280;45801;51.810;19.444;2023-03-20T00:57:01;99019.65;;;8.38;57.39
59939;BME280;45801;51.810;19.444;2023-03-20T00:59:32;99015.62;;;8.37;57.60
59939;BME280;45801;51.810;19.444;2023-03-20T01:02:00;99013.99;;;8.36;57.45
59939;BME280;45801;51.810;19.444;2023-03-20T01:04:34;99014.20;;;8.33;57.78
59939;BME280;45801;51.810;19.444;2023-03-20T01:07:01;99013.41;;;8.31;57.72
59939;BME280;45801;51.810;19.444;2023-03-20T01:09:28;99012.69;;;8.30;57.73
59939;BME280;45801;51.810;19.444;2023-03-20T01:11:55;99012.73;;;8.31;57.46
59939;BME280;45801;51.810;19.444;2023-03-20T01:14:24;99015.03;;;8.32;57.63
59939;BME280;45801;51.810;19.444;2023-03-20T01:16:50;99015.91;;;8.32;57.77
59939;BME280;45801;51.810;19.444;2023-03-20T01:19:17;99012.98;;;8.33;57.43
59939;BME280;45801;51.810;19.444;2023-03-20T01:21:44;99012.64;;;8.33;57.23
59939;BME280;45801;51.810;19.444;2023-03-20T01:24:12;99016.41;;;8.32;57.36
59939;BME280;45801;51.810;19.444;2023-03-20T01:26:40;99016.80;;;8.29;57.46
59939;BME280;45801;51.810;19.444;2023-03-20T01:29:17;99014.26;;;8.27;57.24
59939;BME280;45801;51.810;19.444;2023-03-20T01:31:45;99017.09;;;8.24;57.40
59939;BME280;45801;51.810;19.444;2023-03-20T01:34:11;99017.32;;;8.22;57.60
59939;BME280;45801;51.810;19.444;2023-03-20T01:36:39;99017.36;;;8.19;57.78
59939;BME280;45801;51.810;19.444;2023-03-20T01:39:05;99013.45;;;8.18;57.71
59939;BME280;45801;51.810;19.444;2023-03-20T01:41:33;99014.77;;;8.16;57.78
59939;BME280;45801;51.810;19.444;2023-03-20T01:44:17;99011.91;;;8.15;57.94
59939;BME280;45801;51.810;19.444;2023-03-20T01:46:44;99013.23;;;8.13;58.08
59939;BME280;45801;51.810;19.444;2023-03-20T01:51:45;99011.70;;;8.11;57.99
59939;BME280;45801;51.810;19.444;2023-03-20T01:54:20;99012.88;;;8.09;58.18
59939;BME280;45801;51.810;19.444;2023-03-20T01:56:54;99012.33;;;8.09;58.06
59939;BME280;45801;51.810;19.444;2023-03-20T01:59:30;99010.52;;;8.07;58.27
59939;BME280;45801;51.810;19.444;2023-03-20T02:01:59;99008.92;;;8.07;58.18
59939;BME280;45801;51.810;19.444;2023-03-20T02:04:33;99013.39;;;8.06;58.26
59939;BME280;45801;51.810;19.444;2023-03-20T02:07:02;99016.77;;;8.03;58.33
59939;BME280;45801;51.810;19.444;2023-03-20T02:09:30;99016.02;;;8.02;58.15
59939;BME280;45801;51.810;19.444;2023-03-20T02:11:57;99017.59;;;8.03;57.88
59939;BME280;45801;51.810;19.444;2023-03-20T02:14:25;99016.57;;;8.03;58.05
59939;BME280;45801;51.810;19.444;2023-03-20T02:16:52;99014.38;;;8.01;58.19
59939;BME280;45801;51.810;19.444;2023-03-20T02:33:19;99008.88;;;7.85;58.38
59939;BME280;45801;51.810;19.444;2023-03-20T02:47:31;99007.30;;;7.74;58.88
59939;BME280;45801;51.810;19.444;2023-03-20T02:50:13;99007.73;;;7.73;59.14
59939;BME280;45801;51.810;19.444;2023-03-20T02:55:47;99008.83;;;7.70;58.94
59939;BME280;45801;51.810;19.444;2023-03-20T02:58:29;99005.34;;;7.67;58.47
59939;BME280;45801;51.810;19.444;2023-03-20T03:01:13;99005.08;;;7.62;58.63
59939;BME280;45801;51.810;19.444;2023-03-20T03:03:54;99003.10;;;7.57;58.82
59939;BME280;45801;51.810;19.444;2023-03-20T03:06:26;99002.06;;;7.54;58.50
59939;BME280;45801;51.810;19.444;2023-03-20T03:09:00;99002.14;;;7.52;58.79
59939;BME280;45801;51.810;19.444;2023-03-20T03:11:31;98999.09;;;7.50;58.71
59939;BME280;45801;51.810;19.444;2023-03-20T03:14:00;99002.20;;;7.49;58.75
59939;BME280;45801;51.810;19.444;2023-03-20T03:16:33;99002.80;;;7.48;58.80
59939;BME280;45801;51.810;19.444;2023-03-20T03:19:06;99003.58;;;7.46;58.98
59939;BME280;45801;51.810;19.444;2023-03-20T03:21:35;99000.95;;;7.46;58.90
59939;BME280;45801;51.810;19.444;2023-03-20T03:24:05;98999.24;;;7.47;58.88
59939;BME280;45801;51.810;19.444;2023-03-20T03:26:37;98999.73;;;7.49;59.07
59939;BME280;45801;51.810;19.444;2023-03-20T03:29:12;98999.91;;;7.52;59.25
59939;BME280;45801;51.810;19.444;2023-03-20T03:31:42;98999.21;;;7.52;59.45
59939;BME280;45801;51.810;19.444;2023-03-20T03:34:16;98999.63;;;7.54;59.38
59939;BME280;45801;51.810;19.444;2023-03-20T03:38:27;98997.56;;;7.55;59.53
59939;BME280;45801;51.810;19.444;2023-03-20T03:42:36;98997.29;;;7.56;59.80
59939;BME280;45801;51.810;19.444;2023-03-20T03:45:12;98996.29;;;7.57;59.78
59939;BME280;45801;51.810;19.444;2023-03-20T03:47:53;98990.45;;;7.58;59.59
59939;BME280;45801;51.810;19.444;2023-03-20T03:50:24;98989.33;;;7.61;59.45
59939;BME280;45801;51.810;19.444;2023-03-20T03:52:59;98987.56;;;7.60;59.51
59939;BME280;45801;51.810;19.444;2023-03-20T03:55:49;98989.30;;;7.60;59.44
59939;BME280;45801;51.810;19.444;2023-03-20T03:58:28;98986.56;;;7.61;59.49
59939;BME280;45801;51.810;19.444;2023-03-20T04:00:57;98984.63;;;7.64;59.36
59939;BME280;45801;51.810;19.444;2023-03-20T04:03:29;98981.59;;;7.66;59.27
59939;BME280;45801;51.810;19.444;2023-03-20T04:05:59;98982.27;;;7.69;59.21
59939;BME280;45801;51.810;19.444;2023-03-20T04:08:27;98983.39;;;7.71;59.33
59939;BME280;45801;51.810;19.444;2023-03-20T04:10:53;98987.08;;;7.71;59.35
59939;BME280;45801;51.810;19.444;2023-03-20T04:13:20;98988.50;;;7.72;59.22
59939;BME280;45801;51.810;19.444;2023-03-20T04:15:46;98985.69;;;7.71;59.50
59939;BME280;45801;51.810;19.444;2023-03-20T04:18:14;98984.27;;;7.71;59.64
59939;BME280;45801;51.810;19.444;2023-03-20T04:20:45;98984.39;;;7.70;59.56
59939;BME280;45801;51.810;19.444;2023-03-20T04:23:13;98984.53;;;7.69;59.58
59939;BME280;45801;51.810;19.444;2023-03-20T04:25:41;98987.13;;;7.69;59.92
59939;BME280;45801;51.810;19.444;2023-03-20T04:28:09;98986.63;;;7.69;60.15
59939;BME280;45801;51.810;19.444;2023-03-20T04:30:38;98983.84;;;7.69;60.24
59939;BME280;45801;51.810;19.444;2023-03-20T04:33:04;98985.56;;;7.69;60.08
59939;BME280;45801;51.810;19.444;2023-03-20T04:35:31;98986.61;;;7.69;60.07
59939;BME280;45801;51.810;19.444;2023-03-20T04:37:58;98989.02;;;7.68;60.53
59939;BME280;45801;51.810;19.444;2023-03-20T04:40:24;98992.02;;;7.69;60.34
59939;BME280;45801;51.810;19.444;2023-03-20T04:42:52;98993.58;;;7.68;60.28
59939;BME280;45801;51.810;19.444;2023-03-20T04:45:18;98994.06;;;7.68;60.19
59939;BME280;45801;51.810;19.444;2023-03-20T04:47:46;98993.91;;;7.68;60.01
59939;BME280;45801;51.810;19.444;2023-03-20T04:50:13;98998.19;;;7.70;60.29
59939;BME280;45801;51.810;19.444;2023-03-20T04:52:39;98999.38;;;7.73;60.14
59939;BME280;45801;51.810;19.444;2023-03-20T04:55:06;98996.63;;;7.74;59.88
59939;BME280;45801;51.810;19.444;2023-03-20T04:57:33;98999.00;;;7.76;59.80
59939;BME280;45801;51.810;19.444;2023-03-20T05:00:00;99001.73;;;7.78;59.87
59939;BME280;45801;51.810;19.444;2023-03-20T05:02:26;99003.96;;;7.81;59.97
59939;BME280;45801;51.810;19.444;2023-03-20T05:04:53;99001.31;;;7.84;59.79
59939;BME280;45801;51.810;19.444;2023-03-20T05:07:19;99001.69;;;7.87;59.82
59939;BME280;45801;51.810;19.444;2023-03-20T05:09:47;98999.55;;;7.90;59.94
59939;BME280;45801;51.810;19.444;2023-03-20T05:12:13;98997.55;;;7.92;59.80
59939;BME280;45801;51.810;19.444;2023-03-20T05:14:40;98996.98;;;7.94;59.72
59939;BME280;45801;51.810;19.444;2023-03-20T05:17:06;98998.67;;;7.98;59.93
59939;BME280;45801;51.810;19.444;2023-03-20T05:19:34;98995.65;;;8.00;59.47
59939;BME280;45801;51.810;19.444;2023-03-20T05:22:00;99000.84;;;8.02;59.14
59939;BME280;45801;51.810;19.444;2023-03-20T05:24:27;99002.67;;;8.04;59.52
59939;BME280;45801;51.810;19.444;2023-03-20T05:26:54;99004.05;;;8.07;59.31
59939;BME280;45801;51.810;19.444;2023-03-20T05:29:20;99006.23;;;8.12;59.02
59939;BME280;45801;51.810;19.444;2023-03-20T05:31:47;99005.44;;;8.18;58.63
59939;BME280;45801;51.810;19.444;2023-03-20T05:34:14;99008.71;;;8.24;58.37
59939;BME280;45801;51.810;19.444;2023-03-20T05:36:40;99013.58;;;8.31;58.33
59939;BME280;45801;51.810;19.444;2023-03-20T05:39:07;99014.20;;;8.36;57.97
59939;BME280;45801;51.810;19.444;2023-03-20T05:41:33;99017.35;;;8.40;58.25
59939;BME280;45801;51.810;19.444;2023-03-20T05:44:00;99022.27;;;8.44;57.79
59939;BME280;45801;51.810;19.444;2023-03-20T05:46:26;99023.52;;;8.48;57.51
59939;BME280;45801;51.810;19.444;2023-03-20T05:48:53;99021.91;;;8.51;57.07
59939;BME280;45801;51.810;19.444;2023-03-20T05:51:20;99025.52;;;8.54;57.04
59939;BME280;45801;51.810;19.444;2023-03-20T05:53:46;99024.15;;;8.54;57.11
59939;BME280;45801;51.810;19.444;2023-03-20T05:56:13;99026.09;;;8.55;57.11
59939;BME280;45801;51.810;19.444;2023-03-20T05:58:39;99026.45;;;8.55;56.95
59939;BME280;45801;51.810;19.444;2023-03-20T06:01:06;99025.64;;;8.56;57.14
59939;BME280;45801;51.810;19.444;2023-03-20T06:03:33;99031.16;;;8.58;56.82
59939;BME280;45801;51.810;19.444;2023-03-20T06:06:01;99029.34;;;8.60;56.68
59939;BME280;45801;51.810;19.444;2023-03-20T06:08:28;99027.85;;;8.62;56.63
59939;BME280;45801;51.810;19.444;2023-03-20T06:10:55;99027.53;;;8.63;56.68
59939;BME280;45801;51.810;19.444;2023-03-20T06:13:22;99024.55;;;8.63;56.50
59939;BME280;45801;51.810;19.444;2023-03-20T06:15:48;99027.04;;;8.67;56.75
59939;BME280;45801;51.810;19.444;2023-03-20T06:18:15;99027.85;;;8.73;56.77
59939;BME280;45801;51.810;19.444;2023-03-20T06:20:42;99028.14;;;8.80;56.38
59939;BME280;45801;51.810;19.444;2023-03-20T06:23:09;99032.14;;;8.87;56.33
59939;BME280;45801;51.810;19.444;2023-03-20T06:25:35;99031.27;;;8.91;56.31
59939;BME280;45801;51.810;19.444;2023-03-20T06:28:02;99035.20;;;8.92;56.08
59939;BME280;45801;51.810;19.444;2023-03-20T06:30:28;99035.39;;;8.93;56.09
59939;BME280;45801;51.810;19.444;2023-03-20T06:32:56;99037.85;;;8.97;56.27
59939;BME280;45801;51.810;19.444;2023-03-20T06:35:23;99039.08;;;9.00;56.23
59939;BME280;45801;51.810;19.444;2023-03-20T06:37:50;99037.84;;;9.08;56.10
59939;BME280;45801;51.810;19.444;2023-03-20T06:40:16;99037.36;;;9.13;55.77
59939;BME280;45801;51.810;19.444;2023-03-20T06:42:43;99038.10;;;9.18;55.70
59939;BME280;45801;51.810;19.444;2023-03-20T06:45:10;99036.35;;;9.22;56.00
59939;BME280;45801;51.810;19.444;2023-03-20T06:47:37;99033.94;;;9.26;55.91
59939;BME280;45801;51.810;19.444;2023-03-20T06:50:04;99035.20;;;9.31;55.56
59939;BME280;45801;51.810;19.444;2023-03-20T06:52:31;99036.41;;;9.30;55.53
59939;BME280;45801;51.810;19.444;2023-03-20T06:54:58;99036.45;;;9.31;55.84
59939;BME280;45801;51.810;19.444;2023-03-20T06:57:24;99038.52;;;9.34;55.62
59939;BME280;45801;51.810;19.444;2023-03-20T06:59:51;99040.57;;;9.37;55.70
59939;BME280;45801;51.810;19.444;2023-03-20T07:02:19;99041.98;;;9.42;55.96
59939;BME280;45801;51.810;19.444;2023-03-20T07:04:45;99041.80;;;9.50;55.78
59939;BME280;45801;51.810;19.444;2023-03-20T07:07:12;99042.11;;;9.60;55.55
59939;BME280;45801;51.810;19.444;2023-03-20T07:09:39;99042.20;;;9.70;55.25
59939;BME280;45801;51.810;19.444;2023-03-20T07:12:10;99039.66;;;9.81;55.42
59939;BME280;45801;51.810;19.444;2023-03-20T07:14:43;99039.96;;;9.88;55.23
59939;BME280;45801;51.810;19.444;2023-03-20T07:17:10;99038.63;;;9.93;55.18
59939;BME280;45801;51.810;19.444;2023-03-20T07:19:37;99041.93;;;10.01;55.22
59939;BME280;45801;51.810;19.444;2023-03-20T07:22:07;99042.64;;;10.09;55.06
59939;BME280;45801;51.810;19.444;2023-03-20T07:24:34;99046.11;;;10.17;54.44
59939;BME280;45801;51.810;19.444;2023-03-20T07:27:00;99045.84;;;10.23;54.66
59939;BME280;45801;51.810;19.444;2023-03-20T07:29:26;99041.55;;;10.30;54.67
59939;BME280;45801;51.810;19.444;2023-03-20T07:31:53;99044.98;;;10.36;54.33
59939;BME280;45801;51.810;19.444;2023-03-20T07:34:20;99044.92;;;10.43;54.13
59939;BME280;45801;51.810;19.444;2023-03-20T07:36:46;99041.33;;;10.49;54.01
59939;BME280;45801;51.810;19.444;2023-03-20T07:39:12;99046.55;;;10.49;53.91
59939;BME280;45801;51.810;19.444;2023-03-20T07:41:39;99043.34;;;10.52;53.90
59939;BME280;45801;51.810;19.444;2023-03-20T07:44:05;99042.67;;;10.56;54.07
59939;BME280;45801;51.810;19.444;2023-03-20T07:46:33;99043.52;;;10.65;53.95
59939;BME280;45801;51.810;19.444;2023-03-20T07:49:00;99039.86;;;10.74;53.91
59939;BME280;45801;51.810;19.444;2023-03-20T07:51:27;99039.31;;;10.82;53.68
59939;BME280;45801;51.810;19.444;2023-03-20T07:53:54;99038.05;;;10.90;53.35
59939;BME280;45801;51.810;19.444;2023-03-20T07:56:20;99038.16;;;10.98;53.08
59939;BME280;45801;51.810;19.444;2023-03-20T07:58:47;99039.73;;;11.03;52.75
59939;BME280;45801;51.810;19.444;2023-03-20T08:01:14;99038.98;;;11.10;52.66
59939;BME280;45801;51.810;19.444;2023-03-20T08:03:40;99038.55;;;11.18;52.68
59939;BME280;45801;51.810;19.444;2023-03-20T08:06:07;99036.88;;;11.24;52.48
59939;BME280;45801;51.810;19.444;2023-03-20T08:08:35;99041.39;;;11.32;52.70
59939;BME280;45801;51.810;19.444;2023-03-20T08:11:01;99044.67;;;11.41;52.46
59939;BME280;45801;51.810;19.444;2023-03-20T08:13:27;99044.92;;;11.47;52.21
59939;BME280;45801;51.810;19.444;2023-03-20T08:15:54;99044.55;;;11.52;51.77
59939;BME280;45801;51.810;19.444;2023-03-20T08:18:20;99042.44;;;11.56;52.05
59939;BME280;45801;51.810;19.444;2023-03-20T08:20:47;99042.34;;;11.63;52.04
59939;BME280;45801;51.810;19.444;2023-03-20T08:23:16;99040.88;;;11.66;51.39
59939;BME280;45801;51.810;19.444;2023-03-20T08:25:47;99042.05;;;11.70;51.68
59939;BME280;45801;51.810;19.444;2023-03-20T08:28:13;99045.65;;;11.73;51.53
59939;BME280;45801;51.810;19.444;2023-03-20T08:30:41;99045.04;;;11.75;51.49
59939;BME280;45801;51.810;19.444;2023-03-20T08:33:08;99043.65;;;11.76;50.95
59939;BME280;45801;51.810;19.444;2023-03-20T08:35:35;99043.67;;;11.72;51.26
59939;BME280;45801;51.810;19.444;2023-03-20T08:38:02;99050.54;;;11.72;51.86
59939;BME280;45801;51.810;19.444;2023-03-20T08:40:28;99052.23;;;11.75;52.17
59939;BME280;45801;51.810;19.444;2023-03-20T08:42:55;99054.95;;;11.73;53.62
59939;BME280;45801;51.810;19.444;2023-03-20T08:45:22;99053.16;;;11.72;54.11
59939;BME280;45801;51.810;19.444;2023-03-20T08:47:51;99052.48;;;11.73;54.77
59939;BME280;45801;51.810;19.444;2023-03-20T08:50:18;99052.05;;;11.75;54.82
59939;BME280;45801;51.810;19.444;2023-03-20T08:52:45;99054.45;;;11.79;54.96
59939;BME280;45801;51.810;19.444;2023-03-20T08:55:14;99053.59;;;11.79;55.09
59939;BME280;45801;51.810;19.444;2023-03-20T08:57:42;99058.28;;;11.78;55.03
59939;BME280;45801;51.810;19.444;2023-03-20T09:00:10;99060.77;;;11.79;55.16
59939;BME280;45801;51.810;19.444;2023-03-20T09:02:38;99062.55;;;11.75;55.69
59939;BME280;45801;51.810;19.444;2023-03-20T09:05:05;99060.20;;;11.82;56.11
59939;BME280;45801;51.810;19.444;2023-03-20T09:07:32;99062.70;;;11.83;55.96
59939;BME280;45801;51.810;19.444;2023-03-20T09:09:59;99067.02;;;11.87;56.00
59939;BME280;45801;51.810;19.444;2023-03-20T09:12:25;99065.31;;;11.93;56.07
59939;BME280;45801;51.810;19.444;2023-03-20T09:14:53;99063.52;;;12.01;55.70
59939;BME280;45801;51.810;19.444;2023-03-20T09:17:19;99067.21;;;12.06;55.78
59939;BME280;45801;51.810;19.444;2023-03-20T09:19:46;99068.05;;;12.10;56.04
59939;BME280;45801;51.810;19.444;2023-03-20T09:22:13;99068.04;;;12.10;56.06
59939;BME280;45801;51.810;19.444;2023-03-20T09:24:41;99070.57;;;12.12;55.90
59939;BME280;45801;51.810;19.444;2023-03-20T09:27:07;99068.41;;;12.16;55.15
59939;BME280;45801;51.810;19.444;2023-03-20T09:29:33;99067.38;;;12.22;54.82
59939;BME280;45801;51.810;19.444;2023-03-20T09:32:00;99068.34;;;12.24;55.03
59939;BME280;45801;51.810;19.444;2023-03-20T09:34:27;99067.77;;;12.28;54.85
59939;BME280;45801;51.810;19.444;2023-03-20T09:36:56;99066.86;;;12.33;54.95
59939;BME280;45801;51.810;19.444;2023-03-20T09:39:23;99067.86;;;12.36;54.85
59939;BME280;45801;51.810;19.444;2023-03-20T09:41:50;99066.77;;;12.40;55.12
59939;BME280;45801;51.810;19.444;2023-03-20T09:47:10;99068.15;;;12.39;55.14
59939;BME280;45801;51.810;19.444;2023-03-20T09:49:44;99072.20;;;12.39;55.07
59939;BME280;45801;51.810;19.444;2023-03-20T09:54:50;99072.70;;;12.44;54.88
59939;BME280;45801;51.810;19.444;2023-03-20T09:57:28;99074.73;;;12.47;55.16
59939;BME280;45801;51.810;19.444;2023-03-20T10:00:00;99076.47;;;12.41;56.33
59939;BME280;45801;51.810;19.444;2023-03-20T10:02:42;99081.52;;;12.34;56.99
59939;BME280;45801;51.810;19.444;2023-03-20T10:07:47;99085.27;;;12.31;57.00
59939;BME280;45801;51.810;19.444;2023-03-20T10:10:14;99085.05;;;12.24;58.51
59939;BME280;45801;51.810;19.444;2023-03-20T10:13:02;99086.71;;;12.17;58.66
59939;BME280;45801;51.810;19.444;2023-03-20T10:15:47;99086.20;;;12.12;58.96
59939;BME280;45801;51.810;19.444;2023-03-20T10:18:22;99085.57;;;12.09;59.18
59939;BME280;45801;51.810;19.444;2023-03-20T10:20:55;99086.48;;;12.10;58.58
59939;BME280;45801;51.810;19.444;2023-03-20T10:23:34;99087.78;;;12.07;58.34
59939;BME280;45801;51.810;19.444;2023-03-20T10:26:05;99082.71;;;12.03;59.47
59939;BME280;45801;51.810;19.444;2023-03-20T10:28:58;99082.62;;;12.00;59.88
59939;BME280;45801;51.810;19.444;2023-03-20T10:31:56;99083.81;;;11.99;60.11
59939;BME280;45801;51.810;19.444;2023-03-20T10:34:31;99078.49;;;12.08;59.70
59939;BME280;45801;51.810;19.444;2023-03-20T10:40:13;99073.89;;;12.12;60.07
59939;BME280;45801;51.810;19.444;2023-03-20T10:42:45;99071.72;;;12.04;59.86
59939;BME280;45801;51.810;19.444;2023-03-20T10:46:06;99074.27;;;12.02;60.60
59939;BME280;45801;51.810;19.444;2023-03-20T10:48:29;99075.50;;;11.83;62.12
59939;BME280;45801;51.810;19.444;2023-03-20T10:51:00;99076.91;;;11.79;63.20
59939;BME280;45801;51.810;19.444;2023-03-20T10:53:41;99070.50;;;11.76;64.19
59939;BME280;45801;51.810;19.444;2023-03-20T10:56:11;99070.47;;;11.75;64.19
59939;BME280;45801;51.810;19.444;2023-03-20T10:58:40;99073.15;;;11.76;64.01
59939;BME280;45801;51.810;19.444;2023-03-20T11:01:09;99074.52;;;11.70;64.01
59939;BME280;45801;51.810;19.444;2023-03-20T11:03:36;99071.86;;;11.74;62.51
59939;BME280;45801;51.810;19.444;2023-03-20T11:06:16;99073.34;;;11.77;62.31
59939;BME280;45801;51.810;19.444;2023-03-20T11:08:49;99071.73;;;11.80;61.21
59939;BME280;45801;51.810;19.444;2023-03-20T11:11:25;99064.45;;;11.83;61.81
59939;BME280;45801;51.810;19.444;2023-03-20T11:13:53;99066.83;;;11.81;61.83
59939;BME280;45801;51.810;19.444;2023-03-20T11:16:28;99065.27;;;11.81;61.73
59939;BME280;45801;51.810;19.444;2023-03-20T11:19:04;99065.49;;;11.83;61.40
59939;BME280;45801;51.810;19.444;2023-03-20T11:21:30;99067.70;;;11.86;62.33
59939;BME280;45801;51.810;19.444;2023-03-20T11:23:57;99066.53;;;11.88;62.40
59939;BME280;45801;51.810;19.444;2023-03-20T11:26:39;99065.19;;;11.90;62.59
59939;BME280;45801;51.810;19.444;2023-03-20T11:29:18;99062.67;;;11.92;62.09
59939;BME280;45801;51.810;19.444;2023-03-20T11:31:47;99061.39;;;11.96;61.88
59939;BME280;45801;51.810;19.444;2023-03-20T11:37:00;99061.14;;;11.98;61.71
59939;BME280;45801;51.810;19.444;2023-03-20T11:39:29;99058.94;;;12.00;61.09
59939;BME280;45801;51.810;19.444;2023-03-20T11:42:00;99061.05;;;12.00;61.59
59939;BME280;45801;51.810;19.444;2023-03-20T11:44:32;99059.17;;;11.97;61.19
59939;BME280;45801;51.810;19.444;2023-03-20T11:47:02;99056.35;;;11.97;61.50
59939;BME280;45801;51.810;19.444;2023-03-20T11:49:31;99050.53;;;11.96;61.49
59939;BME280;45801;51.810;19.444;2023-03-20T11:52:02;99050.20;;;11.97;61.55
59939;BME280;45801;51.810;19.444;2023-03-20T11:54:38;99046.59;;;11.94;62.22
59939;BME280;45801;51.810;19.444;2023-03-20T11:59:56;99043.92;;;12.03;61.19
59939;BME280;45801;51.810;19.444;2023-03-20T12:02:25;99041.23;;;12.11;61.83
59939;BME280;45801;51.810;19.444;2023-03-20T12:04:53;99037.14;;;12.15;61.72
59939;BME280;45801;51.810;19.444;2023-03-20T12:07:28;99035.81;;;12.17;61.70
59939;BME280;45801;51.810;19.444;2023-03-20T12:10:09;99033.29;;;12.20;61.13
59939;BME280;45801;51.810;19.444;2023-03-20T12:15:39;99031.73;;;12.27;60.77
59939;BME280;45801;51.810;19.444;2023-03-20T12:18:46;99027.94;;;12.29;60.37
59939;BME280;45801;51.810;19.444;2023-03-20T12:21:41;99025.94;;;12.32;60.71
59939;BME280;45801;51.810;19.444;2023-03-20T12:24:18;99023.09;;;12.36;60.83
59939;BME280;45801;51.810;19.444;2023-03-20T12:27:00;99024.02;;;12.43;60.71
59939;BME280;45801;51.810;19.444;2023-03-20T12:29:48;99023.02;;;12.51;60.21
59939;BME280;45801;51.810;19.444;2023-03-20T12:32:25;99023.57;;;12.57;59.57
59939;BME280;45801;51.810;19.444;2023-03-20T12:35:05;99016.07;;;12.64;59.48
59939;BME280;45801;51.810;19.444;2023-03-20T12:37:36;99015.20;;;12.81;59.73
59939;BME280;45801;51.810;19.444;2023-03-20T12:40:03;99012.39;;;12.93;59.21
59939;BME280;45801;51.810;19.444;2023-03-20T12:45:37;99001.85;;;13.05;59.43
59939;BME280;45801;51.810;19.444;2023-03-20T12:48:33;99006.20;;;13.15;58.91
59939;BME280;45801;51.810;19.444;2023-03-20T12:51:46;99001.52;;;13.18;58.65
59939;BME280;45801;51.810;19.444;2023-03-20T12:54:38;99000.32;;;13.19;58.62
59939;BME280;45801;51.810;19.444;2023-03-20T13:00:29;99000.36;;;13.20;58.42
59939;BME280;45801;51.810;19.444;2023-03-20T13:03:28;99001.27;;;13.21;58.36
59939;BME280;45801;51.810;19.444;2023-03-20T13:11:58;98995.91;;;13.18;59.07
59939;BME280;45801;51.810;19.444;2023-03-20T13:17:36;98993.36;;;13.15;58.35
59939;BME280;45801;51.810;19.444;2023-03-20T13:20:32;98994.66;;;13.12;58.73
59939;BME280;45801;51.810;19.444;2023-03-20T13:23:22;98993.30;;;13.13;58.68
59939;BME280;45801;51.810;19.444;2023-03-20T13:28:31;98985.40;;;13.02;59.52
59939;BME280;45801;51.810;19.444;2023-03-20T13:31:27;98985.42;;;13.03;59.27
59939;BME280;45801;51.810;19.444;2023-03-20T13:37:23;98974.86;;;13.08;59.11
59939;BME280;45801;51.810;19.444;2023-03-20T13:42:33;98974.66;;;13.01;59.47
59939;BME280;45801;51.810;19.444;2023-03-20T13:45:28;98971.48;;;13.01;59.17
59939;BME280;45801;51.810;19.444;2023-03-20T13:47:55;98968.36;;;13.02;58.47
59939;BME280;45801;51.810;19.444;2023-03-20T13:50:41;98971.89;;;13.02;58.22
59939;BME280;45801;51.810;19.444;2023-03-20T13:53:21;98969.15;;;13.05;58.15
59939;BME280;45801;51.810;19.444;2023-03-20T13:55:57;98967.23;;;13.06;58.09
59939;BME280;45801;51.810;19.444;2023-03-20T14:04:15;98968.24;;;13.04;59.46
59939;BME280;45801;51.810;19.444;2023-03-20T14:06:54;98966.35;;;13.06;59.94
59939;BME280;45801;51.810;19.444;2023-03-20T14:09:31;98966.11;;;12.97;60.87
59939;BME280;45801;51.810;19.444;2023-03-20T14:12:03;98964.02;;;12.98;60.82
59939;BME280;45801;51.810;19.444;2023-03-20T14:14:38;98963.14;;;12.98;61.58
59939;BME280;45801;51.810;19.444;2023-03-20T14:17:14;98962.82;;;12.93;61.95
59939;BME280;45801;51.810;19.444;2023-03-20T14:19:42;98966.00;;;12.94;62.00
59939;BME280;45801;51.810;19.444;2023-03-20T14:22:23;98967.69;;;12.91;62.62
59939;BME280;45801;51.810;19.444;2023-03-20T14:24:58;98965.70;;;12.83;63.65
59939;BME280;45801;51.810;19.444;2023-03-20T14:27:29;98963.79;;;12.84;62.87
59939;BME280;45801;51.810;19.444;2023-03-20T14:35:43;98967.73;;;12.87;63.99
59939;BME280;45801;51.810;19.444;2023-03-20T14:38:26;98968.91;;;12.85;64.44
59939;BME280;45801;51.810;19.444;2023-03-20T14:41:14;98974.39;;;12.74;65.01
59939;BME280;45801;51.810;19.444;2023-03-20T14:46:39;98972.34;;;12.65;65.40
59939;BME280;45801;51.810;19.444;2023-03-20T14:52:29;98968.86;;;12.60;65.99